Essex Junction, Vermont
Current Conditions -  °F | °C
As of 11:54 PM on Wednesday 22 Oct 2014 (Local Time) from KBTV Reporting Station
Overcast Overcast  
Wind Chill:   Ceiling: 3500
Heat Index:   Visibility: 10mi
Dew Point:   Wind: 15mph
Humidity: 66%   Direction: 340°NNW
Pressure: 30.07"   Gusts: NA
Location:  44.49°N, 73.11°W
Report Text: KBTV 230354Z 34013KT 10SM OVC035 09/03 A3007 RMK AO2 SLP185 T00890028
Loading
Personal Weather Stations






























Interactive Weather Map New forecast layout! Learn more

10-Day Weather Forecast

Advertisements
Track Severe Weather on mobile